createdAt,value
2023-02-14T00:00:49.175Z,100.00
2023-02-14T00:03:16.073Z,100.00
2023-02-14T00:05:42.746Z,100.00
2023-02-14T00:08:09.323Z,100.00
2023-02-14T00:10:35.935Z,100.00
2023-02-14T00:13:02.493Z,100.00
2023-02-14T00:15:29.076Z,100.00
2023-02-14T00:17:59.617Z,100.00
2023-02-14T00:20:27.595Z,100.00
2023-02-14T00:22:54.685Z,100.00
2023-02-14T00:25:21.347Z,100.00
2023-02-14T00:27:47.977Z,100.00
2023-02-14T00:30:14.930Z,100.00
2023-02-14T00:32:42.539Z,100.00
2023-02-14T00:35:09.723Z,100.00
2023-02-14T00:37:36.653Z,100.00
2023-02-14T00:40:05.114Z,100.00
2023-02-14T00:42:31.660Z,100.00
2023-02-14T00:44:58.189Z,100.00
2023-02-14T00:47:24.861Z,100.00
2023-02-14T00:49:51.958Z,100.00
2023-02-14T00:52:18.654Z,100.00
2023-02-14T00:54:45.446Z,100.00
2023-02-14T00:57:14.016Z,100.00
2023-02-14T00:59:40.566Z,100.00
2023-02-14T01:02:07.248Z,100.00
2023-02-14T01:04:34.342Z,100.00
2023-02-14T01:07:00.935Z,100.00
2023-02-14T01:09:27.649Z,100.00
2023-02-14T01:11:54.250Z,100.00
2023-02-14T01:14:20.797Z,100.00
2023-02-14T01:16:49.537Z,100.00
2023-02-14T01:19:16.516Z,100.00
2023-02-14T01:21:43.872Z,100.00
2023-02-14T01:24:12.141Z,100.00
2023-02-14T01:26:39.694Z,100.00
2023-02-14T01:29:06.624Z,100.00
2023-02-14T01:31:35.334Z,100.00
2023-02-14T01:34:02.595Z,100.00
2023-02-14T01:36:31.953Z,100.00
2023-02-14T01:39:02.245Z,100.00
2023-02-14T01:41:32.451Z,100.00
2023-02-14T01:44:01.550Z,100.00
2023-02-14T01:46:32.239Z,100.00
2023-02-14T01:49:04.819Z,100.00
2023-02-14T01:51:32.494Z,100.00
2023-02-14T01:53:59.877Z,100.00
2023-02-14T01:56:45.440Z,100.00
2023-02-14T01:59:18.284Z,100.00
2023-02-14T02:01:48.459Z,100.00
2023-02-14T02:04:25.853Z,100.00
2023-02-14T02:06:56.546Z,100.00
2023-02-14T02:09:46.918Z,100.00
2023-02-14T02:12:13.572Z,100.00
2023-02-14T02:14:41.292Z,100.00
2023-02-14T02:17:35.807Z,100.00
2023-02-14T02:20:40.410Z,100.00
2023-02-14T02:23:21.900Z,100.00
2023-02-14T02:26:07.347Z,100.00
2023-02-14T02:29:15.878Z,100.00
2023-02-14T02:31:45.991Z,100.00
2023-02-14T02:34:50.222Z,100.00
2023-02-14T02:37:28.383Z,100.00
2023-02-14T02:40:22.185Z,100.00
2023-02-14T02:42:56.472Z,100.00
2023-02-14T02:46:28.577Z,100.00
2023-02-14T02:49:03.745Z,100.00
2023-02-14T02:51:58.395Z,100.00
2023-02-14T02:54:39.007Z,100.00
2023-02-14T02:57:12.441Z,100.00
2023-02-14T02:59:42.610Z,100.00
2023-02-14T03:02:17.881Z,100.00
2023-02-14T03:04:55.844Z,100.00
2023-02-14T03:07:40.588Z,100.00
2023-02-14T03:10:13.015Z,100.00
2023-02-14T03:12:58.452Z,100.00
2023-02-14T03:15:27.878Z,100.00
2023-02-14T03:18:00.542Z,100.00
2023-02-14T03:20:29.855Z,100.00
2023-02-14T03:23:09.406Z,100.00
2023-02-14T03:25:52.616Z,100.00
2023-02-14T03:28:40.934Z,100.00
2023-02-14T03:31:23.094Z,100.00
2023-02-14T03:34:00.878Z,100.00
2023-02-14T03:36:39.273Z,100.00
2023-02-14T03:39:16.073Z,100.00
2023-02-14T03:41:56.522Z,100.00
2023-02-14T03:44:28.446Z,100.00
2023-02-14T03:47:01.272Z,100.00
2023-02-14T03:49:32.314Z,100.00
2023-02-14T03:52:02.543Z,100.00
2023-02-14T03:54:32.807Z,100.00
2023-02-14T03:57:12.458Z,100.00
2023-02-14T03:59:39.853Z,100.00
2023-02-14T04:02:11.285Z,100.00
2023-02-14T04:04:43.368Z,100.00
2023-02-14T04:07:16.360Z,100.00
2023-02-14T04:09:43.049Z,100.00
2023-02-14T04:12:10.340Z,100.00
2023-02-14T04:14:37.730Z,100.00
2023-02-14T04:17:23.396Z,100.00
2023-02-14T04:19:50.615Z,100.00
2023-02-14T04:22:17.330Z,100.00
2023-02-14T04:24:43.897Z,100.00
2023-02-14T04:27:11.159Z,100.00
2023-02-14T04:29:40.347Z,100.00
2023-02-14T04:32:12.845Z,100.00
2023-02-14T04:34:39.801Z,100.00
2023-02-14T04:37:06.921Z,100.00
2023-02-14T04:39:34.053Z,100.00
2023-02-14T04:42:00.941Z,100.00
2023-02-14T04:44:27.776Z,100.00
2023-02-14T04:46:54.617Z,100.00
2023-02-14T04:49:21.369Z,100.00
2023-02-14T04:51:48.286Z,100.00
2023-02-14T04:54:14.924Z,100.00
2023-02-14T04:56:41.589Z,100.00
2023-02-14T04:59:08.719Z,100.00
2023-02-14T05:01:35.405Z,100.00
2023-02-14T05:04:02.141Z,100.00
2023-02-14T05:06:28.994Z,100.00
2023-02-14T05:08:56.702Z,100.00
2023-02-14T05:11:23.394Z,100.00
2023-02-14T05:13:50.298Z,100.00
2023-02-14T05:16:16.966Z,100.00
2023-02-14T05:18:43.573Z,100.00
2023-02-14T05:21:10.744Z,100.00
2023-02-14T05:23:37.552Z,100.00
2023-02-14T05:26:04.602Z,100.00
2023-02-14T05:28:31.793Z,100.00
2023-02-14T05:30:58.904Z,100.00
2023-02-14T05:33:26.995Z,100.00
2023-02-14T05:35:53.607Z,100.00
2023-02-14T05:38:20.275Z,100.00
2023-02-14T05:40:46.978Z,100.00
2023-02-14T05:43:13.696Z,100.00
2023-02-14T05:45:40.264Z,100.00
2023-02-14T05:48:06.868Z,100.00
2023-02-14T05:50:33.535Z,100.00
2023-02-14T05:53:00.729Z,100.00
2023-02-14T05:55:27.306Z,100.00
2023-02-14T05:57:53.840Z,100.00
2023-02-14T06:00:21.307Z,100.00
2023-02-14T06:02:47.932Z,100.00
2023-02-14T06:05:15.188Z,100.00
2023-02-14T06:07:43.598Z,100.00
2023-02-14T06:10:10.381Z,100.00
2023-02-14T06:12:37.038Z,100.00
2023-02-14T06:15:04.518Z,100.00
2023-02-14T06:17:31.124Z,100.00
2023-02-14T06:19:57.623Z,100.00
2023-02-14T06:22:24.255Z,100.00
2023-02-14T06:24:50.789Z,100.00
2023-02-14T06:27:17.417Z,100.00
2023-02-14T06:29:44.049Z,100.00
2023-02-14T06:32:10.787Z,100.00
2023-02-14T06:34:37.402Z,100.00
2023-02-14T06:37:03.918Z,100.00
2023-02-14T06:39:30.415Z,100.00
2023-02-14T06:41:56.971Z,100.00
2023-02-14T06:44:23.533Z,100.00
2023-02-14T06:46:50.356Z,100.00
2023-02-14T06:49:16.894Z,100.00
2023-02-14T06:51:43.431Z,100.00
2023-02-14T06:54:10.022Z,100.00
2023-02-14T06:56:36.597Z,100.00
2023-02-14T06:59:03.213Z,100.00
2023-02-14T07:01:29.941Z,100.00
2023-02-14T07:03:56.604Z,100.00
2023-02-14T07:06:23.186Z,100.00
2023-02-14T07:08:49.824Z,100.00
2023-02-14T07:11:16.762Z,100.00
2023-02-14T07:13:43.920Z,100.00
2023-02-14T07:16:10.930Z,100.00
2023-02-14T07:18:37.741Z,100.00
2023-02-14T07:21:06.040Z,100.00
2023-02-14T07:23:33.026Z,100.00
2023-02-14T07:25:59.672Z,100.00
2023-02-14T07:28:26.289Z,100.00
2023-02-14T07:30:52.983Z,100.00
2023-02-14T07:33:19.645Z,100.00
2023-02-14T07:35:46.281Z,100.00
2023-02-14T07:38:12.813Z,100.00
2023-02-14T07:40:39.350Z,100.00
2023-02-14T07:43:06.402Z,100.00
2023-02-14T07:45:32.953Z,100.00
2023-02-14T07:48:02.050Z,100.00
2023-02-14T07:50:29.372Z,100.00
2023-02-14T07:52:56.475Z,100.00
2023-02-14T07:55:25.062Z,100.00
2023-02-14T07:57:52.054Z,100.00
2023-02-14T08:00:19.374Z,100.00
2023-02-14T08:02:45.999Z,100.00
2023-02-14T08:05:12.819Z,100.00
2023-02-14T08:07:39.413Z,100.00
2023-02-14T08:10:06.836Z,100.00
2023-02-14T08:12:52.014Z,100.00
2023-02-14T08:15:37.301Z,100.00
2023-02-14T08:18:04.145Z,100.00
2023-02-14T08:20:30.704Z,100.00
2023-02-14T08:22:58.197Z,100.00
2023-02-14T08:25:24.800Z,100.00
2023-02-14T08:27:51.447Z,100.00
2023-02-14T08:30:18.349Z,100.00
2023-02-14T08:32:45.177Z,100.00
2023-02-14T08:35:11.754Z,100.00
2023-02-14T08:37:38.390Z,100.00
2023-02-14T08:40:05.775Z,100.00
2023-02-14T08:42:32.800Z,100.00
2023-02-14T08:44:59.403Z,100.00
2023-02-14T08:47:25.972Z,100.00
2023-02-14T08:49:52.664Z,100.00
2023-02-14T08:52:19.271Z,100.00
2023-02-14T08:54:45.873Z,100.00
2023-02-14T08:57:12.838Z,100.00
2023-02-14T08:59:40.518Z,100.00
2023-02-14T09:02:07.120Z,100.00
2023-02-14T09:04:35.251Z,100.00
2023-02-14T09:07:02.025Z,100.00
2023-02-14T09:09:28.846Z,100.00
2023-02-14T09:11:56.171Z,100.00
2023-02-14T09:14:24.261Z,100.00
2023-02-14T09:16:51.029Z,100.00
2023-02-14T09:19:20.583Z,100.00
2023-02-14T09:21:47.250Z,100.00
2023-02-14T09:24:13.788Z,100.00
2023-02-14T09:26:42.150Z,100.00
2023-02-14T09:29:09.794Z,95.98
2023-02-14T09:31:36.508Z,92.87
2023-02-14T09:34:03.562Z,88.88
2023-02-14T09:36:30.223Z,84.19
2023-02-14T09:38:56.783Z,84.35
2023-02-14T09:41:26.096Z,80.18
2023-02-14T09:44:03.461Z,78.59
2023-02-14T09:46:35.184Z,77.85
2023-02-14T09:49:02.978Z,75.57
2023-02-14T09:51:31.602Z,70.55
2023-02-14T09:54:12.722Z,69.75
2023-02-14T09:57:02.608Z,68.86
2023-02-14T09:59:51.815Z,67.48
2023-02-14T10:02:46.186Z,67.19
2023-02-14T10:05:26.517Z,67.31
2023-02-14T10:08:05.478Z,63.36
2023-02-14T10:10:41.593Z,62.17
2023-02-14T10:13:25.858Z,61.61
2023-02-14T10:16:04.399Z,60.56
2023-02-14T10:18:41.218Z,59.80
2023-02-14T10:21:15.488Z,59.79
2023-02-14T10:23:47.469Z,57.20
2023-02-14T10:26:39.980Z,55.98
2023-02-14T10:29:14.232Z,55.83
2023-02-14T10:31:56.845Z,54.74
2023-02-14T10:34:45.703Z,54.13
2023-02-14T10:37:30.608Z,52.79
2023-02-14T10:40:06.322Z,51.68
2023-02-14T10:42:32.921Z,51.15
2023-02-14T10:45:41.694Z,50.18
2023-02-14T10:48:21.508Z,49.88
2023-02-14T10:51:06.998Z,49.16
2023-02-14T10:53:50.203Z,48.56
2023-02-14T10:56:28.035Z,49.69
2023-02-14T10:58:56.585Z,48.31
2023-02-14T11:01:23.741Z,47.86
2023-02-14T11:04:03.330Z,47.61
2023-02-14T11:06:30.811Z,46.78
2023-02-14T11:08:57.598Z,45.16
2023-02-14T11:11:53.119Z,45.01
2023-02-14T11:14:32.841Z,44.99
2023-02-14T11:17:00.645Z,44.36
2023-02-14T11:19:30.073Z,45.78
2023-02-14T11:21:59.494Z,44.52
2023-02-14T11:24:28.400Z,45.36
2023-02-14T11:26:58.987Z,44.91
2023-02-14T11:29:33.195Z,43.63
2023-02-14T11:32:37.525Z,43.09
2023-02-14T11:35:33.797Z,42.79
2023-02-14T11:38:03.625Z,42.15
2023-02-14T11:40:34.644Z,42.52
2023-02-14T11:43:19.050Z,40.93
2023-02-14T11:45:47.700Z,40.27
2023-02-14T11:48:37.173Z,40.21
2023-02-14T11:51:10.915Z,40.08
2023-02-14T11:53:43.456Z,39.17
2023-02-14T11:56:10.197Z,38.49
2023-02-14T11:58:47.728Z,38.24
2023-02-14T12:01:24.149Z,37.57
2023-02-14T12:03:53.013Z,37.40
2023-02-14T12:06:38.530Z,38.13
2023-02-14T12:09:23.465Z,37.09
2023-02-14T12:12:00.140Z,38.46
2023-02-14T12:14:31.013Z,38.48
2023-02-14T12:17:31.530Z,38.58
2023-02-14T12:20:13.624Z,38.48
2023-02-14T12:22:47.600Z,37.85
2023-02-14T12:25:22.786Z,37.96
2023-02-14T12:27:56.273Z,37.79
2023-02-14T12:30:25.259Z,36.33
2023-02-14T12:32:53.996Z,36.63
2023-02-14T12:35:54.045Z,36.16
2023-02-14T12:38:27.554Z,35.98
2023-02-14T12:41:12.549Z,36.29
2023-02-14T12:43:50.612Z,37.44
2023-02-14T12:46:43.963Z,39.19
2023-02-14T12:49:34.772Z,38.76
2023-02-14T12:52:33.547Z,37.14
2023-02-14T12:55:18.060Z,36.30
2023-02-14T12:57:59.472Z,35.78
2023-02-14T13:00:54.615Z,34.67
2023-02-14T13:03:41.871Z,34.52
2023-02-14T13:06:34.526Z,34.79
2023-02-14T13:09:20.391Z,35.26
2023-02-14T13:12:01.813Z,35.21
2023-02-14T13:14:46.839Z,35.05
2023-02-14T13:17:35.344Z,35.13
2023-02-14T13:20:44.710Z,35.05
2023-02-14T13:23:18.952Z,34.80
2023-02-14T13:25:51.885Z,33.43
2023-02-14T13:28:20.121Z,34.20
2023-02-14T13:30:47.007Z,34.08
2023-02-14T13:34:03.210Z,33.63
2023-02-14T13:36:31.307Z,33.98
2023-02-14T13:38:59.241Z,33.86
2023-02-14T13:41:28.142Z,33.59
2023-02-14T13:44:02.412Z,33.41
2023-02-14T13:46:32.037Z,33.07
2023-02-14T13:49:07.428Z,33.53
2023-02-14T13:51:48.345Z,35.67
2023-02-14T13:54:46.712Z,36.61
2023-02-14T13:57:36.560Z,38.67
2023-02-14T14:00:18.918Z,40.79
2023-02-14T14:02:51.519Z,42.52
2023-02-14T14:05:30.363Z,43.15
2023-02-14T14:08:22.346Z,43.29
2023-02-14T14:11:00.374Z,43.56
2023-02-14T14:13:42.246Z,45.16
2023-02-14T14:16:24.074Z,45.50
2023-02-14T14:18:54.182Z,46.07
2023-02-14T14:21:41.275Z,48.39
2023-02-14T14:24:22.558Z,49.17
2023-02-14T14:27:05.122Z,49.09
2023-02-14T14:29:39.480Z,48.70
2023-02-14T14:32:19.077Z,49.18
2023-02-14T14:35:10.105Z,49.88
2023-02-14T14:37:46.901Z,48.37
2023-02-14T14:40:35.584Z,46.49
2023-02-14T14:43:09.906Z,45.93
2023-02-14T14:45:37.011Z,45.49
2023-02-14T14:48:12.632Z,44.64
2023-02-14T14:50:45.846Z,43.62
2023-02-14T14:53:27.052Z,42.90
2023-02-14T14:55:54.747Z,42.07
2023-02-14T14:58:41.754Z,40.82
2023-02-14T15:01:21.374Z,41.05
2023-02-14T15:03:48.117Z,41.72
2023-02-14T15:06:21.222Z,43.94
2023-02-14T15:08:49.512Z,45.02
2023-02-14T15:11:40.355Z,46.39
2023-02-14T15:14:13.219Z,49.02
2023-02-14T15:16:50.137Z,51.49
2023-02-14T15:19:22.934Z,52.82
2023-02-14T15:21:50.423Z,54.47
2023-02-14T15:24:19.343Z,56.27
2023-02-14T15:26:48.438Z,59.74
2023-02-14T15:29:30.589Z,63.83
2023-02-14T15:32:02.510Z,68.12
2023-02-14T15:34:37.690Z,70.71
2023-02-14T15:37:06.548Z,76.35
2023-02-14T15:39:37.641Z,84.83
2023-02-14T15:42:05.923Z,90.92
2023-02-14T15:44:32.890Z,97.33
2023-02-14T15:47:02.889Z,98.81
2023-02-14T15:49:38.110Z,94.37
2023-02-14T15:52:06.590Z,92.40
2023-02-14T15:54:38.327Z,95.94
2023-02-14T15:57:07.642Z,98.62
2023-02-14T15:59:36.751Z,96.61
2023-02-14T16:02:19.497Z,91.68
2023-02-14T16:04:46.031Z,90.30
2023-02-14T16:07:26.521Z,90.39
2023-02-14T16:10:26.520Z,88.88
2023-02-14T16:12:59.197Z,94.22
2023-02-14T16:15:27.415Z,100.00
2023-02-14T16:17:54.021Z,100.00
2023-02-14T16:20:28.690Z,100.00
2023-02-14T16:23:28.343Z,100.00
2023-02-14T16:25:58.911Z,100.00
2023-02-14T16:28:30.168Z,100.00
2023-02-14T16:30:58.668Z,100.00
2023-02-14T16:33:28.884Z,100.00
2023-02-14T16:36:01.259Z,100.00
2023-02-14T16:38:27.866Z,100.00
2023-02-14T16:40:54.651Z,100.00
2023-02-14T16:43:21.629Z,100.00
2023-02-14T16:45:48.486Z,100.00
2023-02-14T16:48:17.955Z,100.00
2023-02-14T16:50:45.601Z,100.00
2023-02-14T16:53:23.807Z,100.00
2023-02-14T16:55:53.017Z,100.00
2023-02-14T16:58:21.492Z,100.00
2023-02-14T17:00:48.099Z,100.00
2023-02-14T17:03:14.701Z,100.00
2023-02-14T17:05:41.720Z,100.00
2023-02-14T17:08:11.680Z,100.00
2023-02-14T17:10:41.481Z,100.00
2023-02-14T17:13:09.777Z,100.00
2023-02-14T17:15:39.026Z,100.00
2023-02-14T17:18:11.742Z,100.00
2023-02-14T17:20:38.722Z,100.00
2023-02-14T17:23:05.346Z,100.00
2023-02-14T17:25:32.214Z,100.00
2023-02-14T17:28:00.920Z,100.00
2023-02-14T17:30:28.060Z,100.00
2023-02-14T17:32:54.602Z,100.00
2023-02-14T17:35:21.460Z,100.00
2023-02-14T17:37:48.029Z,100.00
2023-02-14T17:40:14.984Z,100.00
2023-02-14T17:42:42.320Z,100.00
2023-02-14T17:45:11.637Z,100.00
2023-02-14T17:47:39.707Z,100.00
2023-02-14T17:50:07.134Z,100.00
2023-02-14T17:52:34.352Z,100.00
2023-02-14T17:55:00.978Z,100.00
2023-02-14T17:57:27.579Z,100.00
2023-02-14T17:59:54.136Z,100.00
2023-02-14T18:02:20.735Z,100.00
2023-02-14T18:04:48.378Z,100.00
2023-02-14T18:07:15.141Z,100.00
2023-02-14T18:09:41.707Z,100.00
2023-02-14T18:12:14.471Z,100.00
2023-02-14T18:14:41.748Z,100.00
2023-02-14T18:17:08.379Z,100.00
2023-02-14T18:19:35.046Z,100.00
2023-02-14T18:22:01.648Z,100.00
2023-02-14T18:24:28.277Z,100.00
2023-02-14T18:26:55.400Z,100.00
2023-02-14T18:29:22.701Z,100.00
2023-02-14T18:31:49.617Z,100.00
2023-02-14T18:34:16.247Z,100.00
2023-02-14T18:36:42.930Z,100.00
2023-02-14T18:39:10.434Z,100.00
2023-02-14T18:41:37.256Z,100.00
2023-02-14T18:44:04.432Z,100.00
2023-02-14T18:46:35.194Z,100.00
2023-02-14T18:49:03.692Z,100.00
2023-02-14T18:51:32.659Z,100.00
2023-02-14T18:54:04.407Z,100.00
2023-02-14T18:56:34.086Z,100.00
2023-02-14T18:59:10.027Z,100.00
2023-02-14T19:01:43.445Z,100.00
2023-02-14T19:04:12.206Z,100.00
2023-02-14T19:06:40.872Z,100.00
2023-02-14T19:09:10.549Z,100.00
2023-02-14T19:11:38.656Z,100.00
2023-02-14T19:14:09.953Z,100.00
2023-02-14T19:16:41.882Z,100.00
2023-02-14T19:19:08.744Z,100.00
2023-02-14T19:21:35.570Z,100.00
2023-02-14T19:24:06.726Z,100.00
2023-02-14T19:26:37.600Z,100.00
2023-02-14T19:29:08.111Z,100.00
2023-02-14T19:31:36.545Z,100.00
2023-02-14T19:34:06.126Z,100.00
2023-02-14T19:36:35.149Z,100.00
2023-02-14T19:39:01.818Z,100.00
2023-02-14T19:41:31.573Z,100.00
2023-02-14T19:43:58.984Z,100.00
2023-02-14T19:46:26.854Z,100.00
2023-02-14T19:48:53.645Z,100.00
2023-02-14T19:51:23.195Z,100.00
2023-02-14T19:53:50.104Z,100.00
2023-02-14T19:56:21.369Z,100.00
2023-02-14T19:58:49.481Z,100.00
2023-02-14T20:01:25.283Z,100.00
2023-02-14T20:03:53.218Z,100.00
2023-02-14T20:06:24.566Z,100.00
2023-02-14T20:08:51.776Z,100.00
2023-02-14T20:11:36.620Z,100.00
2023-02-14T20:14:04.733Z,100.00
2023-02-14T20:16:33.769Z,100.00
2023-02-14T20:19:13.461Z,100.00
2023-02-14T20:21:41.811Z,100.00
2023-02-14T20:24:09.098Z,100.00
2023-02-14T20:26:37.221Z,100.00
2023-02-14T20:29:04.997Z,100.00
2023-02-14T20:31:34.649Z,100.00
2023-02-14T20:34:01.596Z,100.00
2023-02-14T20:36:28.885Z,100.00
2023-02-14T20:39:00.384Z,100.00
2023-02-14T20:41:28.245Z,100.00
2023-02-14T20:43:55.332Z,100.00
2023-02-14T20:46:22.542Z,100.00
2023-02-14T20:48:50.928Z,100.00
2023-02-14T20:51:19.811Z,100.00
2023-02-14T20:53:47.037Z,100.00
2023-02-14T20:56:14.733Z,100.00
2023-02-14T20:58:41.912Z,100.00
2023-02-14T21:01:20.437Z,100.00
2023-02-14T21:03:50.771Z,100.00
2023-02-14T21:06:19.083Z,100.00
2023-02-14T21:08:46.330Z,100.00
2023-02-14T21:11:15.725Z,100.00
2023-02-14T21:13:42.553Z,100.00
2023-02-14T21:16:15.385Z,100.00
2023-02-14T21:18:47.791Z,100.00
2023-02-14T21:21:19.424Z,100.00
2023-02-14T21:23:49.098Z,100.00
2023-02-14T21:26:16.329Z,100.00
2023-02-14T21:28:42.924Z,100.00
2023-02-14T21:31:11.501Z,100.00
2023-02-14T21:33:38.605Z,100.00
2023-02-14T21:36:10.626Z,100.00
2023-02-14T21:38:37.285Z,100.00
2023-02-14T21:41:06.239Z,100.00
2023-02-14T21:43:37.975Z,100.00
2023-02-14T21:46:07.333Z,100.00
2023-02-14T21:48:52.636Z,100.00
2023-02-14T21:51:19.940Z,100.00
2023-02-14T21:53:47.071Z,100.00
2023-02-14T21:56:17.931Z,100.00
2023-02-14T21:58:45.137Z,100.00
2023-02-14T22:01:16.679Z,100.00
2023-02-14T22:03:43.408Z,100.00
2023-02-14T22:06:10.363Z,100.00
2023-02-14T22:08:36.951Z,100.00
2023-02-14T22:11:08.778Z,100.00
2023-02-14T22:13:35.790Z,100.00
2023-02-14T22:16:13.499Z,100.00
2023-02-14T22:18:41.086Z,100.00
2023-02-14T22:21:11.607Z,100.00
2023-02-14T22:23:38.314Z,100.00
2023-02-14T22:26:25.711Z,100.00
2023-02-14T22:28:56.903Z,100.00
2023-02-14T22:31:24.830Z,100.00
2023-02-14T22:33:51.915Z,100.00
2023-02-14T22:36:18.467Z,100.00
2023-02-14T22:38:45.154Z,100.00
2023-02-14T22:41:14.269Z,100.00
2023-02-14T22:43:41.780Z,100.00
2023-02-14T22:46:17.152Z,100.00
2023-02-14T22:48:44.341Z,100.00
2023-02-14T22:51:19.672Z,100.00
2023-02-14T22:53:46.789Z,100.00
2023-02-14T22:56:19.041Z,100.00
2023-02-14T22:58:46.237Z,100.00
2023-02-14T23:01:18.236Z,100.00
2023-02-14T23:03:45.711Z,100.00
2023-02-14T23:06:13.329Z,100.00
2023-02-14T23:08:45.052Z,100.00
2023-02-14T23:11:16.948Z,100.00
2023-02-14T23:14:02.584Z,100.00
2023-02-14T23:16:48.092Z,100.00
2023-02-14T23:19:38.388Z,100.00
2023-02-14T23:22:08.237Z,100.00
2023-02-14T23:24:34.848Z,100.00
2023-02-14T23:27:01.904Z,100.00
2023-02-14T23:29:28.857Z,100.00
2023-02-14T23:31:55.918Z,100.00
2023-02-14T23:34:27.258Z,100.00
2023-02-14T23:36:53.808Z,100.00
2023-02-14T23:39:20.571Z,100.00
2023-02-14T23:41:47.128Z,100.00
2023-02-14T23:44:27.746Z,100.00
2023-02-14T23:46:56.358Z,100.00
2023-02-14T23:49:24.497Z,100.00
2023-02-14T23:51:52.461Z,100.00
2023-02-14T23:54:20.452Z,100.00
2023-02-14T23:56:47.736Z,100.00
2023-02-14T23:59:15.298Z,100.00
